sensor_id;sensor_type;location;lat;lon;timestamp;P1;durP1;ratioP1;P2;durP2;ratioP2
5807;SDS011;2930;42.678;23.312;2023-05-10T00:00:57;1.02;;;1.02;;
5807;SDS011;2930;42.678;23.312;2023-05-10T00:03:22;0.63;;;0.63;;
5807;SDS011;2930;42.678;23.312;2023-05-10T00:05:48;0.90;;;0.90;;
5807;SDS011;2930;42.678;23.312;2023-05-10T00:08:14;0.68;;;0.68;;
5807;SDS011;2930;42.678;23.312;2023-05-10T00:10:39;0.75;;;0.75;;
5807;SDS011;2930;42.678;23.312;2023-05-10T00:13:06;0.82;;;0.82;;
5807;SDS011;2930;42.678;23.312;2023-05-10T00:15:31;1.05;;;1.05;;
5807;SDS011;2930;42.678;23.312;2023-05-10T00:17:57;0.90;;;0.90;;
5807;SDS011;2930;42.678;23.312;2023-05-10T00:20:23;1.08;;;1.00;;
5807;SDS011;2930;42.678;23.312;2023-05-10T00:22:48;0.80;;;0.80;;
5807;SDS011;2930;42.678;23.312;2023-05-10T00:25:14;0.88;;;0.88;;
5807;SDS011;2930;42.678;23.312;2023-05-10T00:27:40;1.05;;;1.05;;
5807;SDS011;2930;42.678;23.312;2023-05-10T00:30:05;1.08;;;1.08;;
5807;SDS011;2930;42.678;23.312;2023-05-10T00:32:32;0.90;;;0.90;;
5807;SDS011;2930;42.678;23.312;2023-05-10T00:34:57;0.90;;;0.90;;
5807;SDS011;2930;42.678;23.312;2023-05-10T00:37:23;1.23;;;1.13;;
5807;SDS011;2930;42.678;23.312;2023-05-10T00:39:49;1.42;;;1.33;;
5807;SDS011;2930;42.678;23.312;2023-05-10T00:42:14;0.85;;;0.85;;
5807;SDS011;2930;42.678;23.312;2023-05-10T00:44:40;1.20;;;1.20;;
5807;SDS011;2930;42.678;23.312;2023-05-10T00:47:06;1.03;;;1.03;;
5807;SDS011;2930;42.678;23.312;2023-05-10T00:49:32;1.40;;;1.40;;
5807;SDS011;2930;42.678;23.312;2023-05-10T00:51:58;0.82;;;0.82;;
5807;SDS011;2930;42.678;23.312;2023-05-10T00:54:24;1.30;;;1.30;;
5807;SDS011;2930;42.678;23.312;2023-05-10T00:56:49;1.33;;;1.33;;
5807;SDS011;2930;42.678;23.312;2023-05-10T00:59:16;1.30;;;1.30;;
5807;SDS011;2930;42.678;23.312;2023-05-10T01:01:43;1.20;;;1.20;;
5807;SDS011;2930;42.678;23.312;2023-05-10T01:04:10;1.60;;;1.50;;
5807;SDS011;2930;42.678;23.312;2023-05-10T01:06:37;1.27;;;1.27;;
5807;SDS011;2930;42.678;23.312;2023-05-10T01:09:04;1.10;;;1.10;;
5807;SDS011;2930;42.678;23.312;2023-05-10T01:11:30;1.10;;;1.10;;
5807;SDS011;2930;42.678;23.312;2023-05-10T01:13:56;2.67;;;1.33;;
5807;SDS011;2930;42.678;23.312;2023-05-10T01:16:23;1.83;;;1.50;;
5807;SDS011;2930;42.678;23.312;2023-05-10T01:18:51;2.60;;;1.50;;
5807;SDS011;2930;42.678;23.312;2023-05-10T01:21:29;1.30;;;1.30;;
5807;SDS011;2930;42.678;23.312;2023-05-10T01:32:17;1.10;;;1.10;;
5807;SDS011;2930;42.678;23.312;2023-05-10T01:37:52;1.27;;;1.27;;
5807;SDS011;2930;42.678;23.312;2023-05-10T01:40:37;0.95;;;0.95;;
5807;SDS011;2930;42.678;23.312;2023-05-10T01:43:24;0.70;;;0.70;;
5807;SDS011;2930;42.678;23.312;2023-05-10T01:46:09;5.00;;;1.00;;
5807;SDS011;2930;42.678;23.312;2023-05-10T01:48:49;1.07;;;0.90;;
5807;SDS011;2930;42.678;23.312;2023-05-10T01:51:25;0.77;;;0.77;;
5807;SDS011;2930;42.678;23.312;2023-05-10T01:53:58;1.03;;;0.80;;
5807;SDS011;2930;42.678;23.312;2023-05-10T01:56:28;0.60;;;0.60;;
5807;SDS011;2930;42.678;23.312;2023-05-10T01:58:56;0.60;;;0.60;;
5807;SDS011;2930;42.678;23.312;2023-05-10T02:01:23;1.00;;;0.65;;
5807;SDS011;2930;42.678;23.312;2023-05-10T02:03:51;0.60;;;0.60;;
5807;SDS011;2930;42.678;23.312;2023-05-10T02:06:20;0.60;;;0.60;;
5807;SDS011;2930;42.678;23.312;2023-05-10T02:08:47;0.60;;;0.60;;
5807;SDS011;2930;42.678;23.312;2023-05-10T02:11:15;0.70;;;0.70;;
5807;SDS011;2930;42.678;23.312;2023-05-10T02:13:43;0.60;;;0.60;;
5807;SDS011;2930;42.678;23.312;2023-05-10T02:16:12;0.83;;;0.77;;
5807;SDS011;2930;42.678;23.312;2023-05-10T02:18:39;0.80;;;0.80;;
5807;SDS011;2930;42.678;23.312;2023-05-10T02:21:05;0.80;;;0.80;;
5807;SDS011;2930;42.678;23.312;2023-05-10T02:23:33;0.93;;;0.90;;
5807;SDS011;2930;42.678;23.312;2023-05-10T02:26:00;1.43;;;0.90;;
5807;SDS011;2930;42.678;23.312;2023-05-10T02:28:27;5.10;;;0.80;;
5807;SDS011;2930;42.678;23.312;2023-05-10T02:30:54;0.87;;;0.87;;
5807;SDS011;2930;42.678;23.312;2023-05-10T02:33:20;0.80;;;0.80;;
5807;SDS011;2930;42.678;23.312;2023-05-10T02:35:47;0.70;;;0.70;;
5807;SDS011;2930;42.678;23.312;2023-05-10T02:38:14;1.00;;;0.73;;
5807;SDS011;2930;42.678;23.312;2023-05-10T02:40:41;1.10;;;1.10;;
5807;SDS011;2930;42.678;23.312;2023-05-10T02:43:09;0.70;;;0.70;;
5807;SDS011;2930;42.678;23.312;2023-05-10T02:45:38;1.03;;;0.97;;
5807;SDS011;2930;42.678;23.312;2023-05-10T02:48:05;11.33;;;0.90;;
5807;SDS011;2930;42.678;23.312;2023-05-10T02:50:32;1.13;;;1.13;;
5807;SDS011;2930;42.678;23.312;2023-05-10T02:53:04;0.77;;;0.77;;
5807;SDS011;2930;42.678;23.312;2023-05-10T02:55:36;2.30;;;0.87;;
5807;SDS011;2930;42.678;23.312;2023-05-10T02:58:05;0.70;;;0.70;;
5807;SDS011;2930;42.678;23.312;2023-05-10T03:00:31;0.80;;;0.80;;
5807;SDS011;2930;42.678;23.312;2023-05-10T03:02:57;0.80;;;0.73;;
5807;SDS011;2930;42.678;23.312;2023-05-10T03:05:23;2.80;;;1.07;;
5807;SDS011;2930;42.678;23.312;2023-05-10T03:07:49;0.70;;;0.70;;
5807;SDS011;2930;42.678;23.312;2023-05-10T03:10:16;0.80;;;0.80;;
5807;SDS011;2930;42.678;23.312;2023-05-10T03:18:43;5.63;;;1.00;;
5807;SDS011;2930;42.678;23.312;2023-05-10T03:21:12;1.30;;;1.20;;
5807;SDS011;2930;42.678;23.312;2023-05-10T03:23:43;0.90;;;0.90;;
5807;SDS011;2930;42.678;23.312;2023-05-10T03:26:14;1.03;;;1.03;;
5807;SDS011;2930;42.678;23.312;2023-05-10T03:28:45;1.03;;;1.03;;
5807;SDS011;2930;42.678;23.312;2023-05-10T03:31:13;1.13;;;1.13;;
5807;SDS011;2930;42.678;23.312;2023-05-10T03:33:45;1.53;;;1.00;;
5807;SDS011;2930;42.678;23.312;2023-05-10T03:36:12;1.80;;;1.03;;
5807;SDS011;2930;42.678;23.312;2023-05-10T03:38:38;0.90;;;0.90;;
5807;SDS011;2930;42.678;23.312;2023-05-10T03:41:03;1.00;;;1.00;;
5807;SDS011;2930;42.678;23.312;2023-05-10T03:43:29;7.30;;;1.30;;
5807;SDS011;2930;42.678;23.312;2023-05-10T03:45:55;0.90;;;0.90;;
5807;SDS011;2930;42.678;23.312;2023-05-10T03:48:21;1.10;;;1.10;;
5807;SDS011;2930;42.678;23.312;2023-05-10T03:50:46;0.90;;;0.90;;
5807;SDS011;2930;42.678;23.312;2023-05-10T03:53:14;0.73;;;0.73;;
5807;SDS011;2930;42.678;23.312;2023-05-10T03:55:40;0.80;;;0.73;;
5807;SDS011;2930;42.678;23.312;2023-05-10T03:58:05;1.60;;;1.13;;
5807;SDS011;2930;42.678;23.312;2023-05-10T04:00:31;1.03;;;1.03;;
5807;SDS011;2930;42.678;23.312;2023-05-10T04:02:57;1.00;;;1.00;;
5807;SDS011;2930;42.678;23.312;2023-05-10T04:05:23;2.97;;;1.00;;
5807;SDS011;2930;42.678;23.312;2023-05-10T04:07:49;1.27;;;1.17;;
5807;SDS011;2930;42.678;23.312;2023-05-10T04:10:16;1.93;;;1.10;;
5807;SDS011;2930;42.678;23.312;2023-05-10T04:12:41;1.10;;;1.10;;
5807;SDS011;2930;42.678;23.312;2023-05-10T04:15:07;1.20;;;1.10;;
5807;SDS011;2930;42.678;23.312;2023-05-10T04:17:33;1.00;;;1.00;;
5807;SDS011;2930;42.678;23.312;2023-05-10T04:19:59;1.10;;;1.10;;
5807;SDS011;2930;42.678;23.312;2023-05-10T04:22:24;0.73;;;0.73;;
5807;SDS011;2930;42.678;23.312;2023-05-10T04:24:50;0.77;;;0.77;;
5807;SDS011;2930;42.678;23.312;2023-05-10T04:27:16;0.97;;;0.97;;
5807;SDS011;2930;42.678;23.312;2023-05-10T04:29:41;2.20;;;1.40;;
5807;SDS011;2930;42.678;23.312;2023-05-10T04:32:07;1.30;;;1.20;;
5807;SDS011;2930;42.678;23.312;2023-05-10T04:34:35;1.20;;;1.10;;
5807;SDS011;2930;42.678;23.312;2023-05-10T04:37:01;0.83;;;0.83;;
5807;SDS011;2930;42.678;23.312;2023-05-10T04:39:27;1.17;;;1.07;;
5807;SDS011;2930;42.678;23.312;2023-05-10T04:41:52;1.50;;;1.50;;
5807;SDS011;2930;42.678;23.312;2023-05-10T04:44:18;1.50;;;1.40;;
5807;SDS011;2930;42.678;23.312;2023-05-10T04:46:44;1.50;;;1.43;;
5807;SDS011;2930;42.678;23.312;2023-05-10T04:49:09;1.33;;;1.23;;
5807;SDS011;2930;42.678;23.312;2023-05-10T04:51:35;1.20;;;1.07;;
5807;SDS011;2930;42.678;23.312;2023-05-10T04:54:00;1.70;;;1.60;;
5807;SDS011;2930;42.678;23.312;2023-05-10T04:56:26;1.67;;;1.67;;
5807;SDS011;2930;42.678;23.312;2023-05-10T04:58:52;1.43;;;1.33;;
5807;SDS011;2930;42.678;23.312;2023-05-10T05:01:18;1.03;;;1.03;;
5807;SDS011;2930;42.678;23.312;2023-05-10T05:03:43;1.47;;;1.37;;
5807;SDS011;2930;42.678;23.312;2023-05-10T05:06:09;1.10;;;1.10;;
5807;SDS011;2930;42.678;23.312;2023-05-10T05:08:35;1.30;;;1.20;;
5807;SDS011;2930;42.678;23.312;2023-05-10T05:11:00;1.50;;;1.50;;
5807;SDS011;2930;42.678;23.312;2023-05-10T05:13:26;1.50;;;1.50;;
5807;SDS011;2930;42.678;23.312;2023-05-10T05:15:51;1.37;;;1.37;;
5807;SDS011;2930;42.678;23.312;2023-05-10T05:18:18;1.20;;;1.20;;
5807;SDS011;2930;42.678;23.312;2023-05-10T05:20:43;1.53;;;1.43;;
5807;SDS011;2930;42.678;23.312;2023-05-10T05:23:09;1.83;;;1.70;;
5807;SDS011;2930;42.678;23.312;2023-05-10T05:25:35;1.53;;;1.50;;
5807;SDS011;2930;42.678;23.312;2023-05-10T05:28:01;1.50;;;1.50;;
5807;SDS011;2930;42.678;23.312;2023-05-10T05:30:26;1.53;;;1.53;;
5807;SDS011;2930;42.678;23.312;2023-05-10T05:32:52;1.60;;;1.60;;
5807;SDS011;2930;42.678;23.312;2023-05-10T05:35:18;2.23;;;1.60;;
5807;SDS011;2930;42.678;23.312;2023-05-10T05:37:43;2.23;;;1.37;;
5807;SDS011;2930;42.678;23.312;2023-05-10T05:40:12;3.07;;;1.33;;
5807;SDS011;2930;42.678;23.312;2023-05-10T05:42:38;1.90;;;1.80;;
5807;SDS011;2930;42.678;23.312;2023-05-10T05:45:04;1.50;;;1.45;;
5807;SDS011;2930;42.678;23.312;2023-05-10T05:47:30;2.88;;;2.70;;
5807;SDS011;2930;42.678;23.312;2023-05-10T05:49:56;1.97;;;1.80;;
5807;SDS011;2930;42.678;23.312;2023-05-10T05:52:21;1.63;;;1.63;;
5807;SDS011;2930;42.678;23.312;2023-05-10T05:54:47;5.27;;;1.83;;
5807;SDS011;2930;42.678;23.312;2023-05-10T05:57:13;2.87;;;1.63;;
5807;SDS011;2930;42.678;23.312;2023-05-10T05:59:38;1.80;;;1.70;;
5807;SDS011;2930;42.678;23.312;2023-05-10T06:02:10;2.07;;;1.83;;
5807;SDS011;2930;42.678;23.312;2023-05-10T06:04:35;1.40;;;1.40;;
5807;SDS011;2930;42.678;23.312;2023-05-10T06:07:01;1.87;;;1.77;;
5807;SDS011;2930;42.678;23.312;2023-05-10T06:09:26;1.90;;;1.80;;
5807;SDS011;2930;42.678;23.312;2023-05-10T06:11:52;2.60;;;1.60;;
5807;SDS011;2930;42.678;23.312;2023-05-10T06:14:19;1.60;;;1.60;;
5807;SDS011;2930;42.678;23.312;2023-05-10T06:16:45;1.90;;;1.80;;
5807;SDS011;2930;42.678;23.312;2023-05-10T06:19:11;2.57;;;1.57;;
5807;SDS011;2930;42.678;23.312;2023-05-10T06:21:37;2.80;;;2.00;;
5807;SDS011;2930;42.678;23.312;2023-05-10T06:24:03;3.17;;;2.97;;
5807;SDS011;2930;42.678;23.312;2023-05-10T06:26:28;2.10;;;2.00;;
5807;SDS011;2930;42.678;23.312;2023-05-10T06:28:54;2.20;;;2.10;;
5807;SDS011;2930;42.678;23.312;2023-05-10T06:31:20;2.38;;;2.28;;
5807;SDS011;2930;42.678;23.312;2023-05-10T06:33:46;1.70;;;1.67;;
5807;SDS011;2930;42.678;23.312;2023-05-10T06:36:11;2.40;;;1.90;;
5807;SDS011;2930;42.678;23.312;2023-05-10T06:38:38;1.92;;;1.80;;
5807;SDS011;2930;42.678;23.312;2023-05-10T06:41:03;1.67;;;1.58;;
5807;SDS011;2930;42.678;23.312;2023-05-10T06:43:29;2.35;;;2.22;;
5807;SDS011;2930;42.678;23.312;2023-05-10T06:45:55;1.73;;;1.73;;
5807;SDS011;2930;42.678;23.312;2023-05-10T06:48:21;1.98;;;1.75;;
5807;SDS011;2930;42.678;23.312;2023-05-10T06:50:46;3.03;;;2.08;;
5807;SDS011;2930;42.678;23.312;2023-05-10T06:53:12;2.00;;;1.90;;
5807;SDS011;2930;42.678;23.312;2023-05-10T06:55:38;1.65;;;1.65;;
5807;SDS011;2930;42.678;23.312;2023-05-10T06:58:04;2.38;;;1.63;;
5807;SDS011;2930;42.678;23.312;2023-05-10T07:00:30;1.85;;;1.80;;
5807;SDS011;2930;42.678;23.312;2023-05-10T07:02:55;2.25;;;2.08;;
5807;SDS011;2930;42.678;23.312;2023-05-10T07:05:21;2.22;;;2.13;;
5807;SDS011;2930;42.678;23.312;2023-05-10T07:07:47;3.80;;;2.42;;
5807;SDS011;2930;42.678;23.312;2023-05-10T07:10:13;8.77;;;2.13;;
5807;SDS011;2930;42.678;23.312;2023-05-10T07:12:38;2.33;;;2.20;;
5807;SDS011;2930;42.678;23.312;2023-05-10T07:15:04;1.58;;;1.55;;
5807;SDS011;2930;42.678;23.312;2023-05-10T07:17:31;4.45;;;1.98;;
5807;SDS011;2930;42.678;23.312;2023-05-10T07:19:58;3.83;;;2.38;;
5807;SDS011;2930;42.678;23.312;2023-05-10T07:22:24;2.15;;;2.05;;
5807;SDS011;2930;42.678;23.312;2023-05-10T07:24:49;2.78;;;2.03;;
5807;SDS011;2930;42.678;23.312;2023-05-10T07:27:15;2.38;;;2.28;;
5807;SDS011;2930;42.678;23.312;2023-05-10T07:33:03;2.38;;;1.70;;
5807;SDS011;2930;42.678;23.312;2023-05-10T07:35:28;2.03;;;1.92;;
5807;SDS011;2930;42.678;23.312;2023-05-10T07:37:54;1.65;;;1.65;;
5807;SDS011;2930;42.678;23.312;2023-05-10T07:40:19;2.97;;;1.83;;
5807;SDS011;2930;42.678;23.312;2023-05-10T07:42:45;7.25;;;2.50;;
5807;SDS011;2930;42.678;23.312;2023-05-10T07:45:11;1.98;;;1.95;;
5807;SDS011;2930;42.678;23.312;2023-05-10T07:47:36;2.08;;;1.98;;
5807;SDS011;2930;42.678;23.312;2023-05-10T07:50:02;2.35;;;2.15;;
5807;SDS011;2930;42.678;23.312;2023-05-10T07:52:28;2.28;;;2.17;;
5807;SDS011;2930;42.678;23.312;2023-05-10T07:54:54;1.60;;;1.52;;
5807;SDS011;2930;42.678;23.312;2023-05-10T07:57:21;3.25;;;2.90;;
5807;SDS011;2930;42.678;23.312;2023-05-10T07:59:47;6.70;;;2.60;;
5807;SDS011;2930;42.678;23.312;2023-05-10T08:02:13;2.70;;;2.60;;
5807;SDS011;2930;42.678;23.312;2023-05-10T08:04:39;2.65;;;2.47;;
5807;SDS011;2930;42.678;23.312;2023-05-10T08:07:04;2.80;;;2.67;;
5807;SDS011;2930;42.678;23.312;2023-05-10T08:09:30;2.60;;;2.40;;
5807;SDS011;2930;42.678;23.312;2023-05-10T08:11:55;2.20;;;2.13;;
5807;SDS011;2930;42.678;23.312;2023-05-10T08:14:21;2.67;;;2.55;;
5807;SDS011;2930;42.678;23.312;2023-05-10T08:16:47;4.43;;;2.38;;
5807;SDS011;2930;42.678;23.312;2023-05-10T08:19:12;2.55;;;2.45;;
5807;SDS011;2930;42.678;23.312;2023-05-10T08:21:38;2.70;;;2.60;;
5807;SDS011;2930;42.678;23.312;2023-05-10T08:24:05;2.25;;;2.20;;
5807;SDS011;2930;42.678;23.312;2023-05-10T08:26:32;2.33;;;2.22;;
5807;SDS011;2930;42.678;23.312;2023-05-10T08:28:57;2.70;;;2.60;;
5807;SDS011;2930;42.678;23.312;2023-05-10T08:31:23;3.08;;;2.75;;
5807;SDS011;2930;42.678;23.312;2023-05-10T08:33:48;3.28;;;2.97;;
5807;SDS011;2930;42.678;23.312;2023-05-10T08:36:16;2.28;;;2.17;;
5807;SDS011;2930;42.678;23.312;2023-05-10T08:38:46;3.05;;;2.85;;
5807;SDS011;2930;42.678;23.312;2023-05-10T08:41:22;2.67;;;2.47;;
5807;SDS011;2930;42.678;23.312;2023-05-10T08:43:50;4.53;;;2.67;;
5807;SDS011;2930;42.678;23.312;2023-05-10T08:46:16;3.08;;;2.88;;
5807;SDS011;2930;42.678;23.312;2023-05-10T08:48:46;2.72;;;2.63;;
5807;SDS011;2930;42.678;23.312;2023-05-10T08:51:13;2.60;;;2.50;;
5807;SDS011;2930;42.678;23.312;2023-05-10T08:53:42;2.58;;;2.47;;
5807;SDS011;2930;42.678;23.312;2023-05-10T08:56:09;3.13;;;2.92;;
5807;SDS011;2930;42.678;23.312;2023-05-10T08:58:35;2.88;;;2.72;;
5807;SDS011;2930;42.678;23.312;2023-05-10T09:01:01;3.03;;;2.83;;
5807;SDS011;2930;42.678;23.312;2023-05-10T09:03:28;2.75;;;2.65;;
5807;SDS011;2930;42.678;23.312;2023-05-10T09:05:54;3.20;;;3.00;;
5807;SDS011;2930;42.678;23.312;2023-05-10T09:08:23;2.72;;;2.42;;
5807;SDS011;2930;42.678;23.312;2023-05-10T09:10:54;2.50;;;2.35;;
5807;SDS011;2930;42.678;23.312;2023-05-10T09:13:20;2.33;;;2.22;;
5807;SDS011;2930;42.678;23.312;2023-05-10T09:15:47;2.75;;;2.65;;
5807;SDS011;2930;42.678;23.312;2023-05-10T09:18:13;3.05;;;2.67;;
5807;SDS011;2930;42.678;23.312;2023-05-10T09:20:39;2.92;;;2.72;;
5807;SDS011;2930;42.678;23.312;2023-05-10T09:23:05;4.15;;;2.63;;
5807;SDS011;2930;42.678;23.312;2023-05-10T09:25:31;2.85;;;2.67;;
5807;SDS011;2930;42.678;23.312;2023-05-10T09:28:00;2.75;;;2.58;;
5807;SDS011;2930;42.678;23.312;2023-05-10T09:30:27;2.90;;;2.70;;
5807;SDS011;2930;42.678;23.312;2023-05-10T09:32:54;2.53;;;2.42;;
5807;SDS011;2930;42.678;23.312;2023-05-10T09:35:22;2.55;;;2.45;;
5807;SDS011;2930;42.678;23.312;2023-05-10T09:37:52;2.65;;;2.45;;
5807;SDS011;2930;42.678;23.312;2023-05-10T09:40:22;3.03;;;2.92;;
5807;SDS011;2930;42.678;23.312;2023-05-10T09:45:31;3.10;;;2.90;;
5807;SDS011;2930;42.678;23.312;2023-05-10T09:48:00;2.47;;;2.40;;
5807;SDS011;2930;42.678;23.312;2023-05-10T09:50:27;3.28;;;3.05;;
5807;SDS011;2930;42.678;23.312;2023-05-10T09:55:24;2.85;;;2.65;;
5807;SDS011;2930;42.678;23.312;2023-05-10T09:58:02;2.92;;;2.80;;
5807;SDS011;2930;42.678;23.312;2023-05-10T10:00:33;3.28;;;3.03;;
5807;SDS011;2930;42.678;23.312;2023-05-10T10:03:00;2.78;;;2.67;;
5807;SDS011;2930;42.678;23.312;2023-05-10T10:05:31;2.47;;;2.47;;
5807;SDS011;2930;42.678;23.312;2023-05-10T10:07:58;3.28;;;3.00;;
5807;SDS011;2930;42.678;23.312;2023-05-10T10:10:25;2.75;;;2.65;;
5807;SDS011;2930;42.678;23.312;2023-05-10T10:12:52;3.10;;;2.90;;
5807;SDS011;2930;42.678;23.312;2023-05-10T10:15:19;2.83;;;2.72;;
5807;SDS011;2930;42.678;23.312;2023-05-10T10:17:45;3.97;;;2.80;;
5807;SDS011;2930;42.678;23.312;2023-05-10T10:20:13;3.28;;;3.10;;
5807;SDS011;2930;42.678;23.312;2023-05-10T10:22:39;2.72;;;2.63;;
5807;SDS011;2930;42.678;23.312;2023-05-10T10:25:05;3.17;;;2.97;;
5807;SDS011;2930;42.678;23.312;2023-05-10T10:27:34;3.22;;;2.42;;
5807;SDS011;2930;42.678;23.312;2023-05-10T10:30:25;2.90;;;2.65;;
5807;SDS011;2930;42.678;23.312;2023-05-10T10:36:14;2.47;;;2.38;;
5807;SDS011;2930;42.678;23.312;2023-05-10T10:41:31;3.63;;;2.85;;
5807;SDS011;2930;42.678;23.312;2023-05-10T10:52:24;3.03;;;2.30;;
5807;SDS011;2930;42.678;23.312;2023-05-10T10:54:57;2.60;;;2.08;;
5807;SDS011;2930;42.678;23.312;2023-05-10T10:57:25;2.03;;;1.95;;
5807;SDS011;2930;42.678;23.312;2023-05-10T10:59:51;2.17;;;2.08;;
5807;SDS011;2930;42.678;23.312;2023-05-10T11:07:57;3.20;;;2.10;;
5807;SDS011;2930;42.678;23.312;2023-05-10T11:10:24;2.63;;;2.45;;
5807;SDS011;2930;42.678;23.312;2023-05-10T11:13:00;2.55;;;2.45;;
5807;SDS011;2930;42.678;23.312;2023-05-10T11:15:37;2.00;;;1.90;;
5807;SDS011;2930;42.678;23.312;2023-05-10T11:18:19;2.53;;;2.42;;
5807;SDS011;2930;42.678;23.312;2023-05-10T11:20:51;2.10;;;2.05;;
5807;SDS011;2930;42.678;23.312;2023-05-10T11:23:23;2.13;;;2.03;;
5807;SDS011;2930;42.678;23.312;2023-05-10T11:25:49;2.40;;;2.30;;
5807;SDS011;2930;42.678;23.312;2023-05-10T11:28:16;1.95;;;1.92;;
5807;SDS011;2930;42.678;23.312;2023-05-10T11:30:43;3.90;;;2.22;;
5807;SDS011;2930;42.678;23.312;2023-05-10T11:33:14;2.30;;;2.20;;
5807;SDS011;2930;42.678;23.312;2023-05-10T11:35:41;2.50;;;2.40;;
5807;SDS011;2930;42.678;23.312;2023-05-10T11:38:08;1.83;;;1.75;;
5807;SDS011;2930;42.678;23.312;2023-05-10T11:40:35;2.60;;;2.40;;
5807;SDS011;2930;42.678;23.312;2023-05-10T11:43:01;2.22;;;2.13;;
5807;SDS011;2930;42.678;23.312;2023-05-10T11:45:28;3.35;;;2.40;;
5807;SDS011;2930;42.678;23.312;2023-05-10T11:47:55;3.60;;;3.30;;
5807;SDS011;2930;42.678;23.312;2023-05-10T11:50:22;2.50;;;2.30;;
5807;SDS011;2930;42.678;23.312;2023-05-10T11:52:54;16.33;;;2.50;;
5807;SDS011;2930;42.678;23.312;2023-05-10T11:55:21;2.70;;;1.90;;
5807;SDS011;2930;42.678;23.312;2023-05-10T11:57:51;2.08;;;2.00;;
5807;SDS011;2930;42.678;23.312;2023-05-10T12:00:20;2.05;;;1.95;;
5807;SDS011;2930;42.678;23.312;2023-05-10T12:02:47;2.28;;;2.08;;
5807;SDS011;2930;42.678;23.312;2023-05-10T12:05:13;1.95;;;1.90;;
5807;SDS011;2930;42.678;23.312;2023-05-10T12:07:39;2.30;;;2.20;;
5807;SDS011;2930;42.678;23.312;2023-05-10T12:12:38;2.25;;;2.15;;
5807;SDS011;2930;42.678;23.312;2023-05-10T12:15:19;1.90;;;1.90;;
5807;SDS011;2930;42.678;23.312;2023-05-10T12:17:49;2.42;;;2.33;;
5807;SDS011;2930;42.678;23.312;2023-05-10T12:20:19;2.72;;;2.63;;
5807;SDS011;2930;42.678;23.312;2023-05-10T12:22:55;2.72;;;2.55;;
5807;SDS011;2930;42.678;23.312;2023-05-10T12:25:23;2.22;;;2.13;;
5807;SDS011;2930;42.678;23.312;2023-05-10T12:27:56;2.97;;;2.15;;
5807;SDS011;2930;42.678;23.312;2023-05-10T12:30:23;2.45;;;2.28;;
5807;SDS011;2930;42.678;23.312;2023-05-10T12:32:50;2.25;;;2.25;;
5807;SDS011;2930;42.678;23.312;2023-05-10T12:35:16;2.58;;;2.45;;
5807;SDS011;2930;42.678;23.312;2023-05-10T12:37:45;7.25;;;2.45;;
5807;SDS011;2930;42.678;23.312;2023-05-10T12:40:11;3.05;;;2.63;;
5807;SDS011;2930;42.678;23.312;2023-05-10T12:42:37;3.05;;;2.85;;
5807;SDS011;2930;42.678;23.312;2023-05-10T12:45:04;3.58;;;2.70;;
5807;SDS011;2930;42.678;23.312;2023-05-10T12:47:31;3.20;;;2.40;;
5807;SDS011;2930;42.678;23.312;2023-05-10T12:49:57;2.95;;;2.60;;
5807;SDS011;2930;42.678;23.312;2023-05-10T12:52:24;2.25;;;2.15;;
5807;SDS011;2930;42.678;23.312;2023-05-10T12:54:51;2.78;;;2.55;;
5807;SDS011;2930;42.678;23.312;2023-05-10T12:57:17;2.42;;;2.22;;
5807;SDS011;2930;42.678;23.312;2023-05-10T12:59:43;3.33;;;2.25;;
5807;SDS011;2930;42.678;23.312;2023-05-10T13:02:09;3.03;;;2.83;;
5807;SDS011;2930;42.678;23.312;2023-05-10T13:04:35;2.15;;;2.15;;
5807;SDS011;2930;42.678;23.312;2023-05-10T13:07:04;2.58;;;2.47;;
5807;SDS011;2930;42.678;23.312;2023-05-10T13:09:30;3.33;;;3.03;;
5807;SDS011;2930;42.678;23.312;2023-05-10T13:11:56;4.78;;;2.83;;
5807;SDS011;2930;42.678;23.312;2023-05-10T13:14:22;2.40;;;2.30;;
5807;SDS011;2930;42.678;23.312;2023-05-10T13:16:47;2.65;;;2.53;;
5807;SDS011;2930;42.678;23.312;2023-05-10T13:19:13;2.83;;;2.63;;
5807;SDS011;2930;42.678;23.312;2023-05-10T13:21:39;2.90;;;2.70;;
5807;SDS011;2930;42.678;23.312;2023-05-10T13:24:06;2.50;;;2.40;;
5807;SDS011;2930;42.678;23.312;2023-05-10T13:26:32;2.85;;;2.67;;
5807;SDS011;2930;42.678;23.312;2023-05-10T13:28:58;2.45;;;2.35;;
5807;SDS011;2930;42.678;23.312;2023-05-10T13:31:23;2.97;;;2.78;;
5807;SDS011;2930;42.678;23.312;2023-05-10T13:33:49;2.33;;;2.13;;
5807;SDS011;2930;42.678;23.312;2023-05-10T13:36:15;4.40;;;3.20;;
5807;SDS011;2930;42.678;23.312;2023-05-10T13:38:41;2.67;;;2.58;;
5807;SDS011;2930;42.678;23.312;2023-05-10T13:41:06;2.03;;;1.92;;
5807;SDS011;2930;42.678;23.312;2023-05-10T13:43:32;2.08;;;1.98;;
5807;SDS011;2930;42.678;23.312;2023-05-10T13:45:58;2.30;;;2.22;;
5807;SDS011;2930;42.678;23.312;2023-05-10T13:48:23;3.05;;;1.90;;
5807;SDS011;2930;42.678;23.312;2023-05-10T13:50:49;2.35;;;2.28;;
5807;SDS011;2930;42.678;23.312;2023-05-10T13:53:15;2.05;;;1.95;;
5807;SDS011;2930;42.678;23.312;2023-05-10T13:59:02;2.17;;;2.08;;
5807;SDS011;2930;42.678;23.312;2023-05-10T14:01:28;2.83;;;2.70;;
5807;SDS011;2930;42.678;23.312;2023-05-10T14:03:54;3.25;;;2.63;;
5807;SDS011;2930;42.678;23.312;2023-05-10T14:06:19;2.63;;;2.42;;
5807;SDS011;2930;42.678;23.312;2023-05-10T14:08:45;6.32;;;3.00;;
5807;SDS011;2930;42.678;23.312;2023-05-10T14:11:11;2.20;;;2.10;;
5807;SDS011;2930;42.678;23.312;2023-05-10T14:13:36;3.40;;;2.97;;
5807;SDS011;2930;42.678;23.312;2023-05-10T14:16:02;2.65;;;2.50;;
5807;SDS011;2930;42.678;23.312;2023-05-10T14:18:28;2.20;;;2.05;;
5807;SDS011;2930;42.678;23.312;2023-05-10T14:20:54;2.80;;;2.03;;
5807;SDS011;2930;42.678;23.312;2023-05-10T14:23:21;2.50;;;2.40;;
5807;SDS011;2930;42.678;23.312;2023-05-10T14:25:51;2.70;;;2.50;;
5807;SDS011;2930;42.678;23.312;2023-05-10T14:28:17;2.63;;;2.15;;
5807;SDS011;2930;42.678;23.312;2023-05-10T14:30:43;2.50;;;2.38;;
5807;SDS011;2930;42.678;23.312;2023-05-10T14:33:09;2.78;;;2.58;;
5807;SDS011;2930;42.678;23.312;2023-05-10T14:35:35;2.20;;;2.10;;
5807;SDS011;2930;42.678;23.312;2023-05-10T14:38:01;2.22;;;2.13;;
5807;SDS011;2930;42.678;23.312;2023-05-10T14:40:28;2.38;;;2.30;;
5807;SDS011;2930;42.678;23.312;2023-05-10T14:42:54;4.28;;;2.80;;
5807;SDS011;2930;42.678;23.312;2023-05-10T14:45:23;2.58;;;2.38;;
5807;SDS011;2930;42.678;23.312;2023-05-10T14:47:49;2.33;;;2.22;;
5807;SDS011;2930;42.678;23.312;2023-05-10T14:50:15;2.65;;;2.47;;
5807;SDS011;2930;42.678;23.312;2023-05-10T14:55:58;2.53;;;2.42;;
5807;SDS011;2930;42.678;23.312;2023-05-10T14:58:26;3.22;;;2.33;;
5807;SDS011;2930;42.678;23.312;2023-05-10T15:00:52;2.60;;;2.50;;
5807;SDS011;2930;42.678;23.312;2023-05-10T15:03:17;11.18;;;2.65;;
5807;SDS011;2930;42.678;23.312;2023-05-10T15:05:43;2.72;;;2.55;;
5807;SDS011;2930;42.678;23.312;2023-05-10T15:08:09;4.32;;;2.80;;
5807;SDS011;2930;42.678;23.312;2023-05-10T15:10:34;3.45;;;2.72;;
5807;SDS011;2930;42.678;23.312;2023-05-10T15:13:01;3.10;;;2.90;;
5807;SDS011;2930;42.678;23.312;2023-05-10T15:15:28;2.20;;;2.03;;
5807;SDS011;2930;42.678;23.312;2023-05-10T15:17:54;2.30;;;2.20;;
5807;SDS011;2930;42.678;23.312;2023-05-10T15:20:19;2.13;;;2.03;;
5807;SDS011;2930;42.678;23.312;2023-05-10T15:22:45;2.78;;;2.53;;
5807;SDS011;2930;42.678;23.312;2023-05-10T15:25:11;2.45;;;2.35;;
5807;SDS011;2930;42.678;23.312;2023-05-10T15:27:38;2.30;;;2.28;;
5807;SDS011;2930;42.678;23.312;2023-05-10T15:30:03;2.38;;;2.28;;
5807;SDS011;2930;42.678;23.312;2023-05-10T15:32:29;3.25;;;2.45;;
5807;SDS011;2930;42.678;23.312;2023-05-10T15:34:55;2.47;;;2.38;;
5807;SDS011;2930;42.678;23.312;2023-05-10T15:37:21;2.38;;;2.17;;
5807;SDS011;2930;42.678;23.312;2023-05-10T15:39:48;2.85;;;2.65;;
5807;SDS011;2930;42.678;23.312;2023-05-10T15:42:14;2.40;;;2.30;;
5807;SDS011;2930;42.678;23.312;2023-05-10T15:44:40;3.15;;;2.03;;
5807;SDS011;2930;42.678;23.312;2023-05-10T15:47:06;2.95;;;2.72;;
5807;SDS011;2930;42.678;23.312;2023-05-10T15:49:32;3.50;;;2.03;;
5807;SDS011;2930;42.678;23.312;2023-05-10T15:51:58;2.03;;;1.92;;
5807;SDS011;2930;42.678;23.312;2023-05-10T15:54:24;7.63;;;2.10;;